Crittenden, Kentucky
Current Conditions -  °F | °C
As of 3:52 PM on Saturday 22 Nov 2014 (Local Time) from KCVG Reporting Station
Broken Clouds Broken Clouds  
Wind Chill: 59°   Ceiling: 10000
Heat Index: 59°   Visibility: 10mi
Dew Point: 35°   Wind: 15mph
Humidity: 41%   Direction: 190°S
Pressure: 30.12"   Gusts: NA
Location:  38.78°N, 84.61°W
Report Text: KCVG 222052Z 19013KT 10SM BKN100 BKN200 15/02 A3012 RMK AO2 SLP198 T01500017 56021
Loading
Personal Weather Stations






























Interactive Weather Map New forecast layout! Learn more

10-Day Weather Forecast

Advertisements
Track Severe Weather on mobile